sensor_id;sensor_type;location;lat;lon;timestamp;pressure;altitude;pressure_sealevel;temperature;humidity
20394;BME280;10356;50.544;9.642;2023-04-26T00:01:08;98314.38;;;4.06;84.03
20394;BME280;10356;50.544;9.642;2023-04-26T00:03:35;98320.16;;;3.94;84.36
20394;BME280;10356;50.544;9.642;2023-04-26T00:06:03;98320.47;;;3.88;84.36
20394;BME280;10356;50.544;9.642;2023-04-26T00:08:33;98310.31;;;3.85;84.47
20394;BME280;10356;50.544;9.642;2023-04-26T00:10:59;98317.59;;;3.77;84.99
20394;BME280;10356;50.544;9.642;2023-04-26T00:13:26;98325.31;;;3.77;84.96
20394;BME280;10356;50.544;9.642;2023-04-26T00:15:52;98315.97;;;3.58;86.27
20394;BME280;10356;50.544;9.642;2023-04-26T00:18:19;98327.56;;;3.49;86.40
20394;BME280;10356;50.544;9.642;2023-04-26T00:20:45;98324.53;;;3.41;86.71
20394;BME280;10356;50.544;9.642;2023-04-26T00:23:13;98324.81;;;3.35;86.78
20394;BME280;10356;50.544;9.642;2023-04-26T00:25:40;98326.00;;;3.28;86.93
20394;BME280;10356;50.544;9.642;2023-04-26T00:28:06;98328.78;;;3.23;87.18
20394;BME280;10356;50.544;9.642;2023-04-26T00:30:34;98324.63;;;3.21;87.30
20394;BME280;10356;50.544;9.642;2023-04-26T00:33:05;98327.41;;;3.16;87.72
20394;BME280;10356;50.544;9.642;2023-04-26T00:35:31;98324.16;;;3.13;87.58
20394;BME280;10356;50.544;9.642;2023-04-26T00:37:58;98330.41;;;3.07;87.95
20394;BME280;10356;50.544;9.642;2023-04-26T00:40:26;98322.19;;;2.99;88.45
20394;BME280;10356;50.544;9.642;2023-04-26T00:42:56;98323.25;;;2.95;88.79
20394;BME280;10356;50.544;9.642;2023-04-26T00:45:23;98334.56;;;2.91;89.44
20394;BME280;10356;50.544;9.642;2023-04-26T00:47:49;98321.66;;;2.93;89.10
20394;BME280;10356;50.544;9.642;2023-04-26T00:50:16;98328.63;;;2.91;89.23
20394;BME280;10356;50.544;9.642;2023-04-26T00:52:44;98325.56;;;2.83;89.60
20394;BME280;10356;50.544;9.642;2023-04-26T00:55:12;98332.72;;;2.76;89.95
20394;BME280;10356;50.544;9.642;2023-04-26T00:57:40;98332.91;;;2.72;89.63
20394;BME280;10356;50.544;9.642;2023-04-26T01:00:08;98337.50;;;2.65;89.85
20394;BME280;10356;50.544;9.642;2023-04-26T01:02:35;98335.25;;;2.58;90.05
20394;BME280;10356;50.544;9.642;2023-04-26T01:05:03;98335.66;;;2.48;90.52
20394;BME280;10356;50.544;9.642;2023-04-26T01:07:30;98335.81;;;2.45;90.44
20394;BME280;10356;50.544;9.642;2023-04-26T01:09:58;98338.50;;;2.42;90.82
20394;BME280;10356;50.544;9.642;2023-04-26T01:12:25;98335.31;;;2.37;90.87
20394;BME280;10356;50.544;9.642;2023-04-26T01:14:54;98332.16;;;2.31;91.25
20394;BME280;10356;50.544;9.642;2023-04-26T01:17:20;98327.16;;;2.28;91.37
20394;BME280;10356;50.544;9.642;2023-04-26T01:19:47;98339.16;;;2.27;91.50
20394;BME280;10356;50.544;9.642;2023-04-26T01:22:13;98334.91;;;2.26;91.93
20394;BME280;10356;50.544;9.642;2023-04-26T01:24:42;98329.91;;;2.23;92.10
20394;BME280;10356;50.544;9.642;2023-04-26T01:27:10;98341.22;;;2.19;92.64
20394;BME280;10356;50.544;9.642;2023-04-26T01:29:37;98337.13;;;2.15;92.73
20394;BME280;10356;50.544;9.642;2023-04-26T01:32:04;98338.06;;;2.13;93.18
20394;BME280;10356;50.544;9.642;2023-04-26T01:34:30;98337.38;;;2.09;93.00
20394;BME280;10356;50.544;9.642;2023-04-26T01:36:58;98336.69;;;2.06;92.94
20394;BME280;10356;50.544;9.642;2023-04-26T01:39:25;98341.22;;;1.99;93.02
20394;BME280;10356;50.544;9.642;2023-04-26T01:41:53;98344.94;;;1.92;93.41
20394;BME280;10356;50.544;9.642;2023-04-26T01:44:20;98338.16;;;1.91;93.17
20394;BME280;10356;50.544;9.642;2023-04-26T01:46:46;98339.19;;;1.87;93.08
20394;BME280;10356;50.544;9.642;2023-04-26T01:49:13;98340.13;;;1.85;93.42
20394;BME280;10356;50.544;9.642;2023-04-26T01:51:39;98339.50;;;1.80;93.52
20394;BME280;10356;50.544;9.642;2023-04-26T01:54:06;98340.44;;;1.77;93.57
20394;BME280;10356;50.544;9.642;2023-04-26T01:56:32;98334.53;;;1.75;93.54
20394;BME280;10356;50.544;9.642;2023-04-26T01:59:00;98338.31;;;1.66;93.91
20394;BME280;10356;50.544;9.642;2023-04-26T02:01:27;98341.06;;;1.62;93.85
20394;BME280;10356;50.544;9.642;2023-04-26T02:03:53;98337.63;;;1.63;93.50
20394;BME280;10356;50.544;9.642;2023-04-26T02:06:20;98336.91;;;1.59;93.44
20394;BME280;10356;50.544;9.642;2023-04-26T02:08:46;98337.97;;;1.54;93.54
20394;BME280;10356;50.544;9.642;2023-04-26T02:11:13;98332.44;;;1.43;93.99
20394;BME280;10356;50.544;9.642;2023-04-26T02:13:40;98331.78;;;1.38;94.17
20394;BME280;10356;50.544;9.642;2023-04-26T02:16:07;98340.38;;;1.37;94.32
20394;BME280;10356;50.544;9.642;2023-04-26T02:18:34;98339.59;;;1.35;94.40
20394;BME280;10356;50.544;9.642;2023-04-26T02:21:00;98343.19;;;1.31;94.37
20394;BME280;10356;50.544;9.642;2023-04-26T02:23:27;98347.66;;;1.26;94.77
20394;BME280;10356;50.544;9.642;2023-04-26T02:25:53;98341.09;;;1.19;95.22
20394;BME280;10356;50.544;9.642;2023-04-26T02:28:20;98339.66;;;1.12;95.92
20394;BME280;10356;50.544;9.642;2023-04-26T02:30:46;98340.50;;;1.12;95.66
20394;BME280;10356;50.544;9.642;2023-04-26T02:33:14;98337.22;;;1.09;95.86
20394;BME280;10356;50.544;9.642;2023-04-26T02:35:40;98338.09;;;1.08;95.62
20394;BME280;10356;50.544;9.642;2023-04-26T02:38:07;98345.00;;;1.06;95.77
20394;BME280;10356;50.544;9.642;2023-04-26T02:40:33;98345.13;;;1.03;96.26
20394;BME280;10356;50.544;9.642;2023-04-26T02:43:00;98346.81;;;1.04;96.23
20394;BME280;10356;50.544;9.642;2023-04-26T02:45:26;98350.28;;;1.03;96.25
20394;BME280;10356;50.544;9.642;2023-04-26T02:47:53;98355.44;;;1.01;96.51
20394;BME280;10356;50.544;9.642;2023-04-26T02:50:21;98353.06;;;0.97;96.32
20394;BME280;10356;50.544;9.642;2023-04-26T02:52:47;98350.66;;;0.92;96.31
20394;BME280;10356;50.544;9.642;2023-04-26T02:55:14;98347.50;;;0.85;96.38
20394;BME280;10356;50.544;9.642;2023-04-26T02:57:41;98345.84;;;0.84;96.76
20394;BME280;10356;50.544;9.642;2023-04-26T03:00:08;98353.56;;;0.83;96.86
20394;BME280;10356;50.544;9.642;2023-04-26T03:02:35;98345.84;;;0.84;96.73
20394;BME280;10356;50.544;9.642;2023-04-26T03:05:02;98349.41;;;0.80;96.99
20394;BME280;10356;50.544;9.642;2023-04-26T03:07:30;98342.72;;;0.76;97.00
20394;BME280;10356;50.544;9.642;2023-04-26T03:09:57;98343.53;;;0.77;97.27
20394;BME280;10356;50.544;9.642;2023-04-26T03:12:24;98350.44;;;0.75;97.34
20394;BME280;10356;50.544;9.642;2023-04-26T03:14:51;98347.28;;;0.68;97.53
20394;BME280;10356;50.544;9.642;2023-04-26T03:17:17;98353.22;;;0.69;97.36
20394;BME280;10356;50.544;9.642;2023-04-26T03:19:44;98357.56;;;0.67;97.88
20394;BME280;10356;50.544;9.642;2023-04-26T03:22:10;98356.63;;;0.69;97.58
20394;BME280;10356;50.544;9.642;2023-04-26T03:24:41;98356.88;;;0.63;97.94
20394;BME280;10356;50.544;9.642;2023-04-26T03:27:09;98361.03;;;0.66;97.77
20394;BME280;10356;50.544;9.642;2023-04-26T03:29:35;98362.13;;;0.60;98.22
20394;BME280;10356;50.544;9.642;2023-04-26T03:32:02;98362.22;;;0.57;98.44
20394;BME280;10356;50.544;9.642;2023-04-26T03:34:28;98359.81;;;0.53;98.96
20394;BME280;10356;50.544;9.642;2023-04-26T03:36:55;98353.75;;;0.55;98.76
20394;BME280;10356;50.544;9.642;2023-04-26T03:39:21;98351.28;;;0.52;98.88
20394;BME280;10356;50.544;9.642;2023-04-26T03:41:49;98352.31;;;0.48;99.09
20394;BME280;10356;50.544;9.642;2023-04-26T03:44:16;98357.44;;;0.48;98.87
20394;BME280;10356;50.544;9.642;2023-04-26T03:46:42;98347.47;;;0.39;98.73
20394;BME280;10356;50.544;9.642;2023-04-26T03:49:09;98348.53;;;0.34;98.98
20394;BME280;10356;50.544;9.642;2023-04-26T03:51:35;98352.09;;;0.30;99.17
20394;BME280;10356;50.544;9.642;2023-04-26T03:54:02;98353.03;;;0.27;98.93
20394;BME280;10356;50.544;9.642;2023-04-26T03:56:29;98354.03;;;0.23;99.10
20394;BME280;10356;50.544;9.642;2023-04-26T03:58:56;98359.22;;;0.22;99.23
20394;BME280;10356;50.544;9.642;2023-04-26T04:01:23;98358.38;;;0.21;99.22
20394;BME280;10356;50.544;9.642;2023-04-26T04:03:50;98352.63;;;0.15;99.02
20394;BME280;10356;50.544;9.642;2023-04-26T04:06:16;98356.81;;;0.17;99.31
20394;BME280;10356;50.544;9.642;2023-04-26T04:08:42;98357.75;;;0.15;99.25
20394;BME280;10356;50.544;9.642;2023-04-26T04:11:09;98362.06;;;0.14;99.26
20394;BME280;10356;50.544;9.642;2023-04-26T04:13:35;98363.66;;;0.17;99.21
20394;BME280;10356;50.544;9.642;2023-04-26T04:16:04;98359.38;;;0.17;99.82
20394;BME280;10356;50.544;9.642;2023-04-26T04:18:31;98367.00;;;0.19;99.90
20394;BME280;10356;50.544;9.642;2023-04-26T04:20:57;98366.97;;;0.20;100.00
20394;BME280;10356;50.544;9.642;2023-04-26T04:23:24;98360.94;;;0.21;100.00
20394;BME280;10356;50.544;9.642;2023-04-26T04:25:51;98360.88;;;0.23;100.00
20394;BME280;10356;50.544;9.642;2023-04-26T04:28:18;98370.91;;;0.29;100.00
20394;BME280;10356;50.544;9.642;2023-04-26T04:30:44;98371.47;;;0.38;100.00
20394;BME280;10356;50.544;9.642;2023-04-26T04:33:12;98373.69;;;0.47;100.00
20394;BME280;10356;50.544;9.642;2023-04-26T04:35:40;98372.47;;;0.57;100.00
20394;BME280;10356;50.544;9.642;2023-04-26T04:38:06;98376.28;;;0.70;99.94
20394;BME280;10356;50.544;9.642;2023-04-26T04:40:33;98380.19;;;0.80;99.67
20394;BME280;10356;50.544;9.642;2023-04-26T04:42:59;98380.72;;;0.89;98.89
20394;BME280;10356;50.544;9.642;2023-04-26T04:45:26;98381.59;;;1.11;99.04
20394;BME280;10356;50.544;9.642;2023-04-26T04:47:52;98385.81;;;1.35;98.36
20394;BME280;10356;50.544;9.642;2023-04-26T04:50:22;98389.69;;;1.45;97.56
20394;BME280;10356;50.544;9.642;2023-04-26T04:52:48;98388.53;;;1.52;96.84
20394;BME280;10356;50.544;9.642;2023-04-26T04:55:15;98388.09;;;1.84;96.79
20394;BME280;10356;50.544;9.642;2023-04-26T04:57:41;98388.38;;;2.18;95.30
20394;BME280;10356;50.544;9.642;2023-04-26T05:00:09;98381.25;;;2.25;94.07
20394;BME280;10356;50.544;9.642;2023-04-26T05:02:37;98385.28;;;2.71;91.94
20394;BME280;10356;50.544;9.642;2023-04-26T05:05:04;98391.34;;;3.07;89.42
20394;BME280;10356;50.544;9.642;2023-04-26T05:07:32;98385.50;;;3.03;88.09
20394;BME280;10356;50.544;9.642;2023-04-26T05:09:59;98393.72;;;2.93;87.67
20394;BME280;10356;50.544;9.642;2023-04-26T05:12:26;98401.72;;;2.87;86.56
20394;BME280;10356;50.544;9.642;2023-04-26T05:14:52;98399.13;;;2.87;86.62
20394;BME280;10356;50.544;9.642;2023-04-26T05:17:19;98396.91;;;2.98;86.14
20394;BME280;10356;50.544;9.642;2023-04-26T05:19:45;98397.06;;;2.95;85.73
20394;BME280;10356;50.544;9.642;2023-04-26T05:22:12;98395.66;;;2.88;85.95
20394;BME280;10356;50.544;9.642;2023-04-26T05:24:44;98401.31;;;2.76;86.87
20394;BME280;10356;50.544;9.642;2023-04-26T05:27:11;98400.81;;;2.68;87.15
20394;BME280;10356;50.544;9.642;2023-04-26T05:29:37;98402.50;;;2.69;87.66
20394;BME280;10356;50.544;9.642;2023-04-26T05:32:04;98411.38;;;2.62;89.56
20394;BME280;10356;50.544;9.642;2023-04-26T05:34:31;98420.91;;;2.60;89.92
20394;BME280;10356;50.544;9.642;2023-04-26T05:36:57;98416.59;;;2.60;90.85
20394;BME280;10356;50.544;9.642;2023-04-26T05:39:24;98410.09;;;2.72;90.53
20394;BME280;10356;50.544;9.642;2023-04-26T05:41:51;98414.16;;;2.96;90.21
20394;BME280;10356;50.544;9.642;2023-04-26T05:44:18;98423.47;;;2.98;90.21
20394;BME280;10356;50.544;9.642;2023-04-26T05:46:45;98427.25;;;3.10;90.14
20394;BME280;10356;50.544;9.642;2023-04-26T05:49:11;98426.13;;;3.15;88.96
20394;BME280;10356;50.544;9.642;2023-04-26T05:51:38;98428.22;;;3.26;88.89
20394;BME280;10356;50.544;9.642;2023-04-26T05:54:04;98419.84;;;3.39;88.83
20394;BME280;10356;50.544;9.642;2023-04-26T05:56:31;98427.09;;;3.50;87.74
20394;BME280;10356;50.544;9.642;2023-04-26T05:58:59;98422.41;;;3.58;86.76
20394;BME280;10356;50.544;9.642;2023-04-26T06:01:25;98428.81;;;3.68;86.17
20394;BME280;10356;50.544;9.642;2023-04-26T06:03:52;98433.44;;;3.97;86.74
20394;BME280;10356;50.544;9.642;2023-04-26T06:06:18;98434.66;;;4.42;85.77
20394;BME280;10356;50.544;9.642;2023-04-26T06:08:45;98427.34;;;4.67;84.86
20394;BME280;10356;50.544;9.642;2023-04-26T06:11:11;98431.88;;;4.96;84.14
20394;BME280;10356;50.544;9.642;2023-04-26T06:13:38;98432.06;;;5.24;81.95
20394;BME280;10356;50.544;9.642;2023-04-26T06:16:06;98429.44;;;5.41;79.25
20394;BME280;10356;50.544;9.642;2023-04-26T06:18:33;98432.59;;;5.46;78.56
20394;BME280;10356;50.544;9.642;2023-04-26T06:20:59;98438.03;;;5.57;78.84
20394;BME280;10356;50.544;9.642;2023-04-26T06:23:26;98434.59;;;5.72;77.00
20394;BME280;10356;50.544;9.642;2023-04-26T06:25:52;98431.56;;;5.80;76.05
20394;BME280;10356;50.544;9.642;2023-04-26T06:28:19;98438.03;;;5.88;75.50
20394;BME280;10356;50.544;9.642;2023-04-26T06:30:45;98434.75;;;6.01;73.39
20394;BME280;10356;50.544;9.642;2023-04-26T06:33:13;98432.47;;;6.26;75.25
20394;BME280;10356;50.544;9.642;2023-04-26T06:35:40;98432.06;;;6.47;72.12
20394;BME280;10356;50.544;9.642;2023-04-26T06:38:07;98434.78;;;6.60;70.39
20394;BME280;10356;50.544;9.642;2023-04-26T06:40:33;98440.13;;;6.71;73.97
20394;BME280;10356;50.544;9.642;2023-04-26T06:43:01;98442.69;;;7.01;71.44
20394;BME280;10356;50.544;9.642;2023-04-26T06:45:27;98451.84;;;7.06;69.40
20394;BME280;10356;50.544;9.642;2023-04-26T06:47:54;98445.44;;;7.26;68.40
20394;BME280;10356;50.544;9.642;2023-04-26T06:50:22;98450.81;;;7.37;65.65
20394;BME280;10356;50.544;9.642;2023-04-26T06:52:49;98446.38;;;7.39;65.81
20394;BME280;10356;50.544;9.642;2023-04-26T06:55:15;98440.81;;;7.45;63.87
20394;BME280;10356;50.544;9.642;2023-04-26T06:57:42;98437.53;;;7.55;64.22
20394;BME280;10356;50.544;9.642;2023-04-26T07:00:10;98436.69;;;7.69;62.25
20394;BME280;10356;50.544;9.642;2023-04-26T07:02:37;98439.16;;;7.85;62.62
20394;BME280;10356;50.544;9.642;2023-04-26T07:05:04;98434.63;;;8.01;62.12
20394;BME280;10356;50.544;9.642;2023-04-26T07:07:31;98438.66;;;8.19;62.55
20394;BME280;10356;50.544;9.642;2023-04-26T07:09:58;98440.31;;;8.59;60.41
20394;BME280;10356;50.544;9.642;2023-04-26T07:12:24;98444.78;;;8.57;60.19
20394;BME280;10356;50.544;9.642;2023-04-26T07:14:51;98443.53;;;8.63;58.68
20394;BME280;10356;50.544;9.642;2023-04-26T07:17:17;98442.41;;;8.67;59.69
20394;BME280;10356;50.544;9.642;2023-04-26T07:19:45;98443.88;;;8.71;57.63
20394;BME280;10356;50.544;9.642;2023-04-26T07:22:11;98439.63;;;8.82;55.60
20394;BME280;10356;50.544;9.642;2023-04-26T07:24:39;98443.16;;;9.19;56.55
20394;BME280;10356;50.544;9.642;2023-04-26T07:27:06;98446.47;;;9.33;55.31
20394;BME280;10356;50.544;9.642;2023-04-26T07:29:32;98443.09;;;9.57;52.26
20394;BME280;10356;50.544;9.642;2023-04-26T07:31:59;98442.88;;;9.60;51.91
20394;BME280;10356;50.544;9.642;2023-04-26T07:34:25;98448.56;;;9.41;51.97
20394;BME280;10356;50.544;9.642;2023-04-26T07:36:52;98445.59;;;9.46;52.63
20394;BME280;10356;50.544;9.642;2023-04-26T07:39:18;98439.66;;;9.92;50.56
20394;BME280;10356;50.544;9.642;2023-04-26T07:41:46;98438.34;;;10.10;51.11
20394;BME280;10356;50.544;9.642;2023-04-26T07:44:12;98436.63;;;10.22;47.31
20394;BME280;10356;50.544;9.642;2023-04-26T07:46:39;98439.94;;;10.24;49.81
20394;BME280;10356;50.544;9.642;2023-04-26T07:49:06;98432.97;;;10.48;48.77
20394;BME280;10356;50.544;9.642;2023-04-26T07:51:34;98435.13;;;10.65;47.32
20394;BME280;10356;50.544;9.642;2023-04-26T07:54:00;98428.47;;;10.27;49.42
20394;BME280;10356;50.544;9.642;2023-04-26T07:56:27;98425.69;;;10.41;48.28
20394;BME280;10356;50.544;9.642;2023-04-26T07:58:55;98422.91;;;10.55;48.23
20394;BME280;10356;50.544;9.642;2023-04-26T08:01:21;98427.81;;;10.81;47.63
20394;BME280;10356;50.544;9.642;2023-04-26T08:03:48;98430.22;;;10.84;47.70
20394;BME280;10356;50.544;9.642;2023-04-26T08:06:14;98427.66;;;10.61;48.00
20394;BME280;10356;50.544;9.642;2023-04-26T08:08:41;98422.81;;;10.67;48.49
20394;BME280;10356;50.544;9.642;2023-04-26T08:11:09;98423.34;;;11.28;47.35
20394;BME280;10356;50.544;9.642;2023-04-26T08:13:36;98421.00;;;11.14;46.03
20394;BME280;10356;50.544;9.642;2023-04-26T08:16:04;98411.50;;;11.46;48.06
20394;BME280;10356;50.544;9.642;2023-04-26T08:18:31;98421.94;;;11.35;45.20
20394;BME280;10356;50.544;9.642;2023-04-26T08:20:57;98423.81;;;11.44;46.52
20394;BME280;10356;50.544;9.642;2023-04-26T08:23:24;98422.38;;;11.84;44.20
20394;BME280;10356;50.544;9.642;2023-04-26T08:25:51;98414.25;;;11.98;45.51
20394;BME280;10356;50.544;9.642;2023-04-26T08:28:17;98412.69;;;12.18;43.79
20394;BME280;10356;50.544;9.642;2023-04-26T08:30:44;98419.91;;;12.66;44.38
20394;BME280;10356;50.544;9.642;2023-04-26T08:33:11;98423.94;;;12.18;42.38
20394;BME280;10356;50.544;9.642;2023-04-26T08:35:38;98421.81;;;12.12;42.21
20394;BME280;10356;50.544;9.642;2023-04-26T08:38:05;98420.66;;;12.05;41.91
20394;BME280;10356;50.544;9.642;2023-04-26T08:40:32;98418.72;;;11.53;42.59
20394;BME280;10356;50.544;9.642;2023-04-26T08:42:58;98430.69;;;10.89;43.43
20394;BME280;10356;50.544;9.642;2023-04-26T08:45:25;98429.06;;;11.11;44.80
20394;BME280;10356;50.544;9.642;2023-04-26T08:47:52;98432.59;;;11.32;43.87
20394;BME280;10356;50.544;9.642;2023-04-26T08:50:24;98430.97;;;11.31;44.08
20394;BME280;10356;50.544;9.642;2023-04-26T08:52:51;98427.16;;;11.68;42.31
20394;BME280;10356;50.544;9.642;2023-04-26T08:55:18;98418.69;;;12.29;42.65
20394;BME280;10356;50.544;9.642;2023-04-26T08:57:46;98424.34;;;12.34;40.54
20394;BME280;10356;50.544;9.642;2023-04-26T09:00:14;98421.00;;;12.12;41.19
20394;BME280;10356;50.544;9.642;2023-04-26T09:02:43;98419.88;;;11.82;40.46
20394;BME280;10356;50.544;9.642;2023-04-26T09:05:11;98417.38;;;11.92;42.20
20394;BME280;10356;50.544;9.642;2023-04-26T09:07:41;98422.41;;;11.51;42.96
20394;BME280;10356;50.544;9.642;2023-04-26T09:10:09;98421.00;;;11.14;43.66
20394;BME280;10356;50.544;9.642;2023-04-26T09:12:37;98416.97;;;10.98;43.15
20394;BME280;10356;50.544;9.642;2023-04-26T09:15:04;98422.88;;;11.01;41.98
20394;BME280;10356;50.544;9.642;2023-04-26T09:17:33;98425.50;;;11.01;41.26
20394;BME280;10356;50.544;9.642;2023-04-26T09:20:09;98416.19;;;10.63;41.04
20394;BME280;10356;50.544;9.642;2023-04-26T09:22:44;98421.91;;;10.34;41.49
20394;BME280;10356;50.544;9.642;2023-04-26T09:25:11;98408.84;;;10.68;39.87
20394;BME280;10356;50.544;9.642;2023-04-26T09:27:39;98407.72;;;11.17;39.05
20394;BME280;10356;50.544;9.642;2023-04-26T09:30:11;98405.13;;;11.17;39.54
20394;BME280;10356;50.544;9.642;2023-04-26T09:32:44;98406.53;;;11.21;40.37
20394;BME280;10356;50.544;9.642;2023-04-26T09:35:20;98408.31;;;11.20;40.43
20394;BME280;10356;50.544;9.642;2023-04-26T09:37:52;98413.63;;;10.96;39.91
20394;BME280;10356;50.544;9.642;2023-04-26T09:40:20;98408.41;;;10.74;39.72
20394;BME280;10356;50.544;9.642;2023-04-26T09:42:55;98399.66;;;10.86;40.95
20394;BME280;10356;50.544;9.642;2023-04-26T09:45:23;98400.00;;;11.04;39.41
20394;BME280;10356;50.544;9.642;2023-04-26T09:47:49;98401.31;;;11.32;37.88
20394;BME280;10356;50.544;9.642;2023-04-26T09:50:25;98407.41;;;11.86;38.31
20394;BME280;10356;50.544;9.642;2023-04-26T09:52:53;98399.44;;;11.99;39.08
20394;BME280;10356;50.544;9.642;2023-04-26T09:55:25;98404.53;;;12.52;37.59
20394;BME280;10356;50.544;9.642;2023-04-26T09:57:52;98405.44;;;12.62;39.40
20394;BME280;10356;50.544;9.642;2023-04-26T10:00:19;98409.53;;;12.55;38.70
20394;BME280;10356;50.544;9.642;2023-04-26T10:02:45;98405.94;;;12.56;39.95
20394;BME280;10356;50.544;9.642;2023-04-26T10:05:12;98398.91;;;12.36;41.50
20394;BME280;10356;50.544;9.642;2023-04-26T10:07:39;98406.78;;;12.57;39.37
20394;BME280;10356;50.544;9.642;2023-04-26T10:10:09;98393.66;;;12.47;39.05
20394;BME280;10356;50.544;9.642;2023-04-26T10:12:37;98394.25;;;12.81;37.41
20394;BME280;10356;50.544;9.642;2023-04-26T10:15:08;98404.91;;;13.10;36.58
20394;BME280;10356;50.544;9.642;2023-04-26T10:17:35;98398.63;;;13.22;36.64
20394;BME280;10356;50.544;9.642;2023-04-26T10:20:03;98397.38;;;12.96;37.82
20394;BME280;10356;50.544;9.642;2023-04-26T10:22:36;98394.53;;;13.29;37.98
20394;BME280;10356;50.544;9.642;2023-04-26T10:25:08;98396.88;;;13.02;36.52
20394;BME280;10356;50.544;9.642;2023-04-26T10:27:49;98396.25;;;12.47;37.63
20394;BME280;10356;50.544;9.642;2023-04-26T10:30:16;98391.06;;;12.36;37.75
20394;BME280;10356;50.544;9.642;2023-04-26T10:36:08;98394.41;;;12.07;38.80
20394;BME280;10356;50.544;9.642;2023-04-26T10:38:36;98387.63;;;11.72;38.85
20394;BME280;10356;50.544;9.642;2023-04-26T10:41:28;98379.88;;;11.93;39.04
20394;BME280;10356;50.544;9.642;2023-04-26T10:43:59;98382.50;;;12.45;39.07
20394;BME280;10356;50.544;9.642;2023-04-26T10:46:37;98380.44;;;12.49;37.46
20394;BME280;10356;50.544;9.642;2023-04-26T10:49:14;98374.13;;;12.31;38.43
20394;BME280;10356;50.544;9.642;2023-04-26T10:54:45;98382.88;;;12.82;37.02
20394;BME280;10356;50.544;9.642;2023-04-26T10:57:14;98378.09;;;13.17;38.46
20394;BME280;10356;50.544;9.642;2023-04-26T11:02:45;98379.59;;;12.69;38.33
20394;BME280;10356;50.544;9.642;2023-04-26T11:05:32;98378.72;;;12.18;38.81
20394;BME280;10356;50.544;9.642;2023-04-26T11:08:05;98375.47;;;12.25;38.97
20394;BME280;10356;50.544;9.642;2023-04-26T11:10:36;98378.19;;;11.92;39.75
20394;BME280;10356;50.544;9.642;2023-04-26T11:13:04;98373.47;;;11.86;40.06
20394;BME280;10356;50.544;9.642;2023-04-26T11:15:31;98379.78;;;12.15;40.21
20394;BME280;10356;50.544;9.642;2023-04-26T11:17:58;98375.78;;;12.00;38.91
20394;BME280;10356;50.544;9.642;2023-04-26T11:20:28;98374.56;;;11.84;39.37
20394;BME280;10356;50.544;9.642;2023-04-26T11:22:55;98369.34;;;12.15;39.26
20394;BME280;10356;50.544;9.642;2023-04-26T11:25:24;98366.75;;;12.04;40.09
20394;BME280;10356;50.544;9.642;2023-04-26T11:27:51;98366.94;;;12.23;39.90
20394;BME280;10356;50.544;9.642;2023-04-26T11:30:18;98358.28;;;12.43;40.33
20394;BME280;10356;50.544;9.642;2023-04-26T11:32:45;98365.50;;;12.60;38.81
20394;BME280;10356;50.544;9.642;2023-04-26T11:35:11;98355.66;;;12.64;40.16
20394;BME280;10356;50.544;9.642;2023-04-26T11:37:38;98360.47;;;12.68;37.34
20394;BME280;10356;50.544;9.642;2023-04-26T11:40:08;98350.47;;;12.74;37.95
20394;BME280;10356;50.544;9.642;2023-04-26T11:42:35;98354.78;;;13.05;36.94
20394;BME280;10356;50.544;9.642;2023-04-26T11:45:02;98350.47;;;13.34;36.56
20394;BME280;10356;50.544;9.642;2023-04-26T11:47:33;98354.28;;;13.20;37.51
20394;BME280;10356;50.544;9.642;2023-04-26T11:50:00;98359.38;;;12.92;37.76
20394;BME280;10356;50.544;9.642;2023-04-26T11:52:28;98358.53;;;12.91;37.70
20394;BME280;10356;50.544;9.642;2023-04-26T11:55:00;98358.19;;;13.35;36.65
20394;BME280;10356;50.544;9.642;2023-04-26T11:57:30;98350.00;;;13.78;36.88
20394;BME280;10356;50.544;9.642;2023-04-26T12:00:06;98365.28;;;13.54;35.69
20394;BME280;10356;50.544;9.642;2023-04-26T12:02:36;98351.00;;;13.28;35.32
20394;BME280;10356;50.544;9.642;2023-04-26T12:05:03;98359.09;;;13.55;36.33
20394;BME280;10356;50.544;9.642;2023-04-26T12:07:33;98354.25;;;13.60;35.57
20394;BME280;10356;50.544;9.642;2023-04-26T12:10:13;98348.47;;;13.47;34.88
20394;BME280;10356;50.544;9.642;2023-04-26T12:12:43;98353.75;;;13.17;37.38
20394;BME280;10356;50.544;9.642;2023-04-26T12:15:10;98355.59;;;12.85;37.47
20394;BME280;10356;50.544;9.642;2023-04-26T12:17:38;98360.19;;;12.92;37.97
20394;BME280;10356;50.544;9.642;2023-04-26T12:20:09;98359.91;;;13.16;36.93
20394;BME280;10356;50.544;9.642;2023-04-26T12:22:36;98357.38;;;13.35;36.69
20394;BME280;10356;50.544;9.642;2023-04-26T12:25:06;98355.53;;;12.96;37.15
20394;BME280;10356;50.544;9.642;2023-04-26T12:27:34;98353.06;;;12.94;37.34
20394;BME280;10356;50.544;9.642;2023-04-26T12:30:01;98356.56;;;13.44;35.00
20394;BME280;10356;50.544;9.642;2023-04-26T12:32:27;98361.78;;;13.34;35.84
20394;BME280;10356;50.544;9.642;2023-04-26T12:34:55;98349.09;;;13.30;35.83
20394;BME280;10356;50.544;9.642;2023-04-26T12:37:21;98353.03;;;13.15;35.85
20394;BME280;10356;50.544;9.642;2023-04-26T12:39:48;98351.66;;;13.70;36.52
20394;BME280;10356;50.544;9.642;2023-04-26T12:42:14;98358.56;;;13.80;35.10
20394;BME280;10356;50.544;9.642;2023-04-26T12:44:41;98351.94;;;13.17;36.14
20394;BME280;10356;50.544;9.642;2023-04-26T12:47:07;98343.31;;;12.76;38.00
20394;BME280;10356;50.544;9.642;2023-04-26T12:49:34;98345.19;;;13.15;38.65
20394;BME280;10356;50.544;9.642;2023-04-26T12:52:02;98349.47;;;12.95;38.48
20394;BME280;10356;50.544;9.642;2023-04-26T12:54:28;98355.41;;;12.77;39.39
20394;BME280;10356;50.544;9.642;2023-04-26T12:56:55;98340.28;;;12.29;38.26
20394;BME280;10356;50.544;9.642;2023-04-26T12:59:21;98340.28;;;12.29;40.86
20394;BME280;10356;50.544;9.642;2023-04-26T13:01:48;98341.16;;;11.98;39.12
20394;BME280;10356;50.544;9.642;2023-04-26T13:04:14;98338.22;;;12.12;39.74
20394;BME280;10356;50.544;9.642;2023-04-26T13:06:41;98350.47;;;12.74;40.99
20394;BME280;10356;50.544;9.642;2023-04-26T13:09:08;98343.13;;;13.18;38.55
20394;BME280;10356;50.544;9.642;2023-04-26T13:11:37;98333.16;;;13.62;37.03
20394;BME280;10356;50.544;9.642;2023-04-26T13:14:04;98342.53;;;13.45;36.25
20394;BME280;10356;50.544;9.642;2023-04-26T13:16:31;98339.25;;;13.72;38.56
20394;BME280;10356;50.544;9.642;2023-04-26T13:18:58;98341.16;;;13.60;37.88